N6470E KTTD-KUAO
Flight info
| Callsign | N6470E |
|---|---|
| Flight time | 0h 21m |
| Altitude | 6000 |
| Route | BTG |
| Aircraft | BE58/L-VGD/C |
Departure
| Time | 2026-05-05 17:29 |
|---|---|
| Airport | Portland Troutdale Airport (KTTD) |
Arrival
| Time | 2026-05-05 17:50 |
|---|---|
| Airport | Aurora State Airport (KUAO) |
| Time | Latitude | Longitude | Altitude | Speed | Heading |
|---|---|---|---|---|---|
| 2026-05-05 17:14 | 45.55043 | -122.39501 | 32 ft | 0 kts | 179° |
| 2026-05-05 17:25 | 45.55042 | -122.39501 | 32 ft | 0 kts | 179° |
| 2026-05-05 17:26 | 45.55030 | -122.39500 | 32 ft | 4 kts | 167° |
| 2026-05-05 17:26 | 45.55022 | -122.39420 | 33 ft | 12 kts | 89° |
| 2026-05-05 17:27 | 45.55025 | -122.39286 | 35 ft | 12 kts | 85° |
| 2026-05-05 17:27 | 45.55029 | -122.39161 | 35 ft | 13 kts | 90° |
| 2026-05-05 17:27 | 45.55014 | -122.39109 | 36 ft | 0 kts | 128° |
| 2026-05-05 17:27 | 45.55003 | -122.39092 | 37 ft | 7 kts | 142° |
| 2026-05-05 17:28 | 45.54953 | -122.39137 | 36 ft | 13 kts | 270° |
| 2026-05-05 17:28 | 45.54945 | -122.39526 | 33 ft | 76 kts | 269° |
| 2026-05-05 17:28 | 45.54924 | -122.40508 | 139 ft | 111 kts | 267° |
| 2026-05-05 17:28 | 45.54884 | -122.41679 | 396 ft | 124 kts | 268° |
| 2026-05-05 17:29 | 45.54872 | -122.42881 | 799 ft | 115 kts | 274° |
| 2026-05-05 17:29 | 45.54998 | -122.43951 | 1130 ft | 115 kts | 291° |
| 2026-05-05 17:29 | 45.55498 | -122.44916 | 1287 ft | 127 kts | 322° |
| 2026-05-05 17:29 | 45.56164 | -122.45644 | 1615 ft | 123 kts | 323° |
| 2026-05-05 17:30 | 45.56788 | -122.46373 | 1937 ft | 120 kts | 319° |
| 2026-05-05 17:30 | 45.57344 | -122.47123 | 2146 ft | 126 kts | 310° |
| 2026-05-05 17:30 | 45.57943 | -122.47979 | 2395 ft | 127 kts | 318° |
| 2026-05-05 17:30 | 45.58630 | -122.48836 | 2574 ft | 134 kts | 320° |
| 2026-05-05 17:31 | 45.59309 | -122.49656 | 2735 ft | 142 kts | 319° |
| 2026-05-05 17:31 | 45.60052 | -122.50610 | 3015 ft | 140 kts | 318° |
| 2026-05-05 17:31 | 45.60889 | -122.51224 | 3314 ft | 139 kts | 348° |
| 2026-05-05 17:31 | 45.61904 | -122.51377 | 3345 ft | 156 kts | 357° |
| 2026-05-05 17:32 | 45.62953 | -122.51457 | 3694 ft | 146 kts | 355° |
| 2026-05-05 17:32 | 45.63946 | -122.51733 | 3891 ft | 150 kts | 346° |
| 2026-05-05 17:32 | 45.64894 | -122.52269 | 4181 ft | 146 kts | 329° |
| 2026-05-05 17:32 | 45.65474 | -122.53499 | 4159 ft | 165 kts | 278° |
| 2026-05-05 17:33 | 45.65066 | -122.54936 | 4505 ft | 151 kts | 236° |
| 2026-05-05 17:33 | 45.64791 | -122.56220 | 4865 ft | 143 kts | 268° |
| 2026-05-05 17:33 | 45.64887 | -122.57733 | 4901 ft | 155 kts | 292° |
| 2026-05-05 17:33 | 45.65428 | -122.59006 | 5211 ft | 151 kts | 313° |
| 2026-05-05 17:34 | 45.66358 | -122.59730 | 5308 ft | 157 kts | 358° |
| 2026-05-05 17:34 | 45.67360 | -122.59320 | 5663 ft | 147 kts | 26° |
| 2026-05-05 17:34 | 45.68251 | -122.58733 | 5962 ft | 145 kts | 31° |
| 2026-05-05 17:34 | 45.69196 | -122.58032 | 5923 ft | 162 kts | 21° |
| 2026-05-05 17:35 | 45.70224 | -122.57651 | 6415 ft | 143 kts | 11° |
| 2026-05-05 17:35 | 45.71205 | -122.57501 | 6553 ft | 153 kts | 2° |
| 2026-05-05 17:35 | 45.72354 | -122.57700 | 6479 ft | 167 kts | 358° |
| 2026-05-05 17:35 | 45.73432 | -122.58023 | 6824 ft | 158 kts | 332° |
| 2026-05-05 17:36 | 45.74304 | -122.59042 | 6871 ft | 170 kts | 325° |
| 2026-05-05 17:36 | 45.75278 | -122.60092 | 6848 ft | 177 kts | 328° |
| 2026-05-05 17:36 | 45.75956 | -122.61357 | 7480 ft | 151 kts | 295° |
| 2026-05-05 17:36 | 45.76197 | -122.62925 | 7335 ft | 176 kts | 274° |
| 2026-05-05 17:37 | 45.75914 | -122.64587 | 7507 ft | 167 kts | 240° |
| 2026-05-05 17:37 | 45.75001 | -122.65588 | 7449 ft | 174 kts | 191° |
| 2026-05-05 17:37 | 45.73845 | -122.65286 | 7507 ft | 165 kts | 151° |
| 2026-05-05 17:37 | 45.72880 | -122.64510 | 7611 ft | 162 kts | 143° |
| 2026-05-05 17:38 | 45.71940 | -122.63548 | 7261 ft | 175 kts | 141° |
| 2026-05-05 17:38 | 45.70899 | -122.62633 | 7140 ft | 171 kts | 151° |
| 2026-05-05 17:38 | 45.69781 | -122.61935 | 6794 ft | 182 kts | 158° |
| 2026-05-05 17:38 | 45.68544 | -122.61514 | 6480 ft | 187 kts | 167° |
| 2026-05-05 17:39 | 45.67239 | -122.61475 | 6263 ft | 187 kts | 187° |
| 2026-05-05 17:39 | 45.65976 | -122.61927 | 5754 ft | 201 kts | 198° |
| 2026-05-05 17:39 | 45.64692 | -122.62563 | 5557 ft | 192 kts | 194° |
| 2026-05-05 17:39 | 45.63417 | -122.63067 | 4965 ft | 207 kts | 193° |
| 2026-05-05 17:40 | 45.62124 | -122.63464 | 5215 ft | 169 kts | 189° |
| 2026-05-05 17:40 | 45.61110 | -122.63757 | 5185 ft | 167 kts | 189° |
| 2026-05-05 17:40 | 45.59864 | -122.63982 | 4653 ft | 186 kts | 184° |
| 2026-05-05 17:40 | 45.58672 | -122.64215 | 4691 ft | 171 kts | 194° |
| 2026-05-05 17:41 | 45.57491 | -122.64550 | 4346 ft | 180 kts | 192° |
| 2026-05-05 17:41 | 45.56392 | -122.65224 | 4376 ft | 164 kts | 213° |
| 2026-05-05 17:41 | 45.55421 | -122.66158 | 4084 ft | 173 kts | 214° |
| 2026-05-05 17:41 | 45.54324 | -122.66924 | 3774 ft | 177 kts | 189° |
| 2026-05-05 17:42 | 45.53198 | -122.67197 | 3945 ft | 154 kts | 206° |
| 2026-05-05 17:42 | 45.52364 | -122.68224 | 3550 ft | 171 kts | 233° |
| 2026-05-05 17:42 | 45.51711 | -122.69653 | 3313 ft | 173 kts | 238° |
| 2026-05-05 17:42 | 45.51031 | -122.71121 | 3096 ft | 176 kts | 234° |
| 2026-05-05 17:43 | 45.50105 | -122.72134 | 3137 ft | 171 kts | 194° |
| 2026-05-05 17:43 | 45.48917 | -122.72369 | 3109 ft | 170 kts | 186° |
| 2026-05-05 17:43 | 45.47783 | -122.72587 | 3110 ft | 166 kts | 186° |
| 2026-05-05 17:43 | 45.46627 | -122.72620 | 3021 ft | 168 kts | 179° |
| 2026-05-05 17:44 | 45.45452 | -122.72742 | 2978 ft | 168 kts | 187° |
| 2026-05-05 17:44 | 45.44270 | -122.72960 | 2837 ft | 171 kts | 188° |
| 2026-05-05 17:44 | 45.43122 | -122.73235 | 2839 ft | 167 kts | 192° |
| 2026-05-05 17:44 | 45.41960 | -122.73628 | 2685 ft | 172 kts | 192° |
| 2026-05-05 17:45 | 45.40782 | -122.73938 | 2631 ft | 171 kts | 191° |
| 2026-05-05 17:45 | 45.39629 | -122.74230 | 2694 ft | 163 kts | 192° |
| 2026-05-05 17:45 | 45.38553 | -122.74511 | 2710 ft | 148 kts | 188° |
| 2026-05-05 17:45 | 45.37662 | -122.74755 | 2816 ft | 122 kts | 188° |
| 2026-05-05 17:46 | 45.36808 | -122.74886 | 2644 ft | 117 kts | 184° |
| 2026-05-05 17:46 | 45.35990 | -122.75007 | 2598 ft | 122 kts | 186° |
| 2026-05-05 17:46 | 45.35141 | -122.75166 | 2495 ft | 125 kts | 185° |
| 2026-05-05 17:46 | 45.34288 | -122.75288 | 2468 ft | 122 kts | 191° |
| 2026-05-05 17:47 | 45.33433 | -122.75416 | 2376 ft | 124 kts | 181° |
| 2026-05-05 17:47 | 45.32564 | -122.75705 | 2112 ft | 139 kts | 197° |
| 2026-05-05 17:47 | 45.31627 | -122.76001 | 1911 ft | 129 kts | 185° |
| 2026-05-05 17:47 | 45.30752 | -122.76078 | 1656 ft | 126 kts | 180° |
| 2026-05-05 17:48 | 45.29882 | -122.76055 | 1347 ft | 125 kts | 182° |
| 2026-05-05 17:48 | 45.29019 | -122.76225 | 981 ft | 126 kts | 188° |
| 2026-05-05 17:48 | 45.28178 | -122.76374 | 772 ft | 113 kts | 188° |
| 2026-05-05 17:48 | 45.27449 | -122.76517 | 563 ft | 102 kts | 186° |
| 2026-05-05 17:49 | 45.26763 | -122.76630 | 441 ft | 100 kts | 187° |
| 2026-05-05 17:49 | 45.26067 | -122.76761 | 368 ft | 100 kts | 185° |
| 2026-05-05 17:49 | 45.25382 | -122.76888 | 216 ft | 98 kts | 186° |
| 2026-05-05 17:49 | 45.24780 | -122.76992 | 198 ft | 73 kts | 187° |
| 2026-05-05 17:50 | 45.24363 | -122.77067 | 198 ft | 49 kts | 187° |
| 2026-05-05 17:50 | 45.24149 | -122.77106 | 194 ft | 6 kts | 187° |
| 2026-05-05 17:50 | 45.24147 | -122.77106 | 194 ft | 0 kts | 187° |